Time;durP1;ratioP1;P1;durP2;ratioP2;P2;SDS_P1;SDS_P2;PMS_P1;PMS_P2;Temp;Humidity;BMP_temperature;BMP_pressure;BME280_temperature;BME280_humidity;BME280_pressure;Samples;Min_cycle;Max_cycle;Signal;HPM_P1;HPM_P2
2021/12/04 00:02:06;;;;;;;22.65;19.52;;;2.10;99.90;;;;;;5065163;28;20382;-84
2021/12/04 00:04:37;;;;;;;27.48;20.33;;;2.10;99.90;;;;;;5048908;28;20379;-84
2021/12/04 00:07:07;;;;;;;21.67;19.27;;;2.00;99.90;;;;;;5054483;28;20459;-84
2021/12/04 00:09:34;;;;;;;22.17;19.77;;;2.10;99.90;;;;;;5049584;28;20771;-85
2021/12/04 00:12:03;;;;;;;21.13;18.88;;;2.00;99.90;;;;;;5071726;28;20460;-86
2021/12/04 00:14:35;;;;;;;22.95;18.58;;;2.10;99.90;;;;;;5073031;28;20378;-84
2021/12/04 00:17:01;;;;;;;20.42;18.20;;;2.20;99.90;;;;;;5052149;28;20401;-83
2021/12/04 00:19:28;;;;;;;23.75;19.23;;;2.10;99.90;;;;;;5053849;28;20444;-84
2021/12/04 00:21:54;;;;;;;20.55;17.27;;;2.00;99.90;;;;;;5054765;28;20389;-84
2021/12/04 00:24:20;;;;;;;23.33;18.48;;;2.10;99.90;;;;;;5070747;28;20500;-82
2021/12/04 00:26:47;;;;;;;19.58;17.48;;;2.10;99.90;;;;;;5052492;28;20444;-84
2021/12/04 00:29:13;;;;;;;20.52;18.25;;;2.10;99.90;;;;;;5052383;28;20740;-83
2021/12/04 00:31:45;;;;;;;20.08;17.65;;;2.20;99.90;;;;;;5052759;28;20382;-84
2021/12/04 00:34:11;;;;;;;19.02;17.05;;;2.20;99.90;;;;;;5052446;28;20426;-83
2021/12/04 00:50:00;;;;;;;19.75;17.63;;;2.30;99.90;;;;;;5071415;28;20478;-84
2021/12/04 00:52:26;;;;;;;18.80;16.90;;;2.30;99.90;;;;;;5053293;28;20469;-83
2021/12/04 00:54:52;;;;;;;19.42;16.83;;;2.40;99.90;;;;;;5071009;28;20374;-84
2021/12/04 00:57:18;;;;;;;19.70;17.15;;;2.40;99.90;;;;;;5070927;28;20389;-83
2021/12/04 00:59:44;;;;;;;19.40;16.35;;;2.50;99.90;;;;;;5071762;28;20406;-84
2021/12/04 01:02:09;;;;;;;18.50;16.25;;;2.50;99.90;;;;;;5071408;28;20354;-84
2021/12/04 01:04:35;;;;;;;19.83;17.30;;;2.50;99.90;;;;;;5053067;28;20394;-83
2021/12/04 01:07:01;;;;;;;20.40;17.10;;;2.50;99.90;;;;;;5052602;28;20420;-84
2021/12/04 01:09:27;;;;;;;20.20;16.90;;;2.50;99.90;;;;;;5058501;28;20864;-84
2021/12/04 01:11:54;;;;;;;18.80;16.77;;;2.50;99.90;;;;;;5050674;28;20456;-83
2021/12/04 01:14:23;;;;;;;20.58;17.15;;;2.60;99.90;;;;;;5066965;28;20473;-84
2021/12/04 01:16:49;;;;;;;19.17;17.17;;;2.50;99.90;;;;;;5068687;28;20873;-84
2021/12/04 01:19:15;;;;;;;19.73;17.40;;;2.50;99.90;;;;;;5070966;28;20398;-84
2021/12/04 01:21:44;;;;;;;20.83;18.10;;;2.50;99.90;;;;;;5053407;28;20419;-84
2021/12/04 01:24:10;;;;;;;19.75;17.65;;;2.40;99.90;;;;;;5052765;28;20390;-84
2021/12/04 01:26:36;;;;;;;19.67;17.70;;;2.40;99.90;;;;;;5052345;28;20967;-84
2021/12/04 01:29:02;;;;;;;21.38;19.08;;;2.50;99.90;;;;;;5055028;28;20477;-84
2021/12/04 01:31:28;;;;;;;21.53;19.23;;;2.50;99.90;;;;;;5073837;28;20450;-84
2021/12/04 01:33:53;;;;;;;23.23;18.80;;;2.50;99.90;;;;;;5070873;28;20868;-84
2021/12/04 01:36:19;;;;;;;25.17;19.35;;;2.40;99.90;;;;;;5051619;28;20370;-84
2021/12/04 01:38:45;;;;;;;23.00;19.92;;;2.50;99.90;;;;;;5054030;28;20441;-84
2021/12/04 01:41:10;;;;;;;21.10;18.75;;;2.40;99.90;;;;;;5051482;28;20413;-84
2021/12/04 01:43:36;;;;;;;22.97;19.43;;;2.50;99.90;;;;;;5054623;28;20386;-84
2021/12/04 01:46:03;;;;;;;24.60;20.37;;;2.40;99.90;;;;;;5071308;28;20389;-84
2021/12/04 01:48:29;;;;;;;25.40;20.08;;;2.40;99.90;;;;;;5060502;28;20391;-83
2021/12/04 01:50:56;;;;;;;23.30;20.80;;;2.30;99.90;;;;;;5034779;28;20833;-83
2021/12/04 01:53:22;;;;;;;21.80;19.52;;;2.30;99.90;;;;;;5035121;28;20899;-85
2021/12/04 01:55:52;;;;;;;23.05;19.58;;;2.40;99.90;;;;;;5043782;28;20398;-84
2021/12/04 01:58:18;;;;;;;23.48;20.50;;;2.50;99.90;;;;;;5044222;28;20407;-83
2021/12/04 02:00:44;;;;;;;23.08;20.40;;;2.40;99.90;;;;;;5033215;28;20387;-84
2021/12/04 02:03:13;;;;;;;24.17;20.83;;;2.40;99.90;;;;;;5051142;28;20912;-84
2021/12/04 02:05:39;;;;;;;23.75;20.40;;;2.40;99.90;;;;;;5052482;28;20367;-84
2021/12/04 02:08:11;;;;;;;23.70;21.00;;;2.30;99.90;;;;;;5051443;28;20458;-84
2021/12/04 02:10:36;;;;;;;24.42;21.67;;;2.20;99.90;;;;;;5046440;28;21005;-84
2021/12/04 02:13:02;;;;;;;26.58;22.45;;;2.20;99.90;;;;;;5054292;28;20393;-84
2021/12/04 02:15:29;;;;;;;25.35;22.27;;;2.20;99.90;;;;;;5055388;28;20378;-84
2021/12/04 02:17:54;;;;;;;27.92;22.80;;;2.30;99.90;;;;;;5054144;28;20406;-84
2021/12/04 02:20:23;;;;;;;24.53;21.97;;;2.20;99.90;;;;;;5054265;28;20895;-84
2021/12/04 02:22:49;;;;;;;28.17;23.65;;;2.20;99.90;;;;;;5073720;28;20374;-84
2021/12/04 02:25:16;;;;;;;26.40;22.97;;;2.20;99.90;;;;;;5036810;28;20414;-84
2021/12/04 02:27:43;;;;;;;27.60;24.35;;;2.20;99.90;;;;;;5037372;28;20396;-84
2021/12/04 02:30:11;;;;;;;27.77;23.88;;;2.20;99.90;;;;;;5054967;28;20402;-84
2021/12/04 02:32:38;;;;;;;27.55;24.27;;;2.20;99.90;;;;;;5035980;28;20379;-85
2021/12/04 02:35:06;;;;;;;29.65;24.63;;;2.20;99.90;;;;;;5053307;28;20371;-85
2021/12/04 02:37:33;;;;;;;27.73;24.83;;;2.30;99.90;;;;;;5035668;28;20384;-84
2021/12/04 02:39:59;;;;;;;28.77;25.48;;;2.20;99.90;;;;;;5054283;28;20394;-84
2021/12/04 02:42:29;;;;;;;31.48;25.48;;;2.20;99.90;;;;;;5054996;28;20424;-84
2021/12/04 02:44:56;;;;;;;29.48;25.15;;;2.30;99.90;;;;;;5051712;28;20947;-85
2021/12/04 02:47:22;;;;;;;30.95;25.88;;;2.30;99.90;;;;;;5037691;28;20376;-84
2021/12/04 02:49:47;;;;;;;32.03;27.30;;;2.30;99.90;;;;;;5056025;28;21739;-85
2021/12/04 02:52:14;;;;;;;27.95;25.05;;;2.20;99.90;;;;;;5055679;28;20382;-84
2021/12/04 02:54:41;;;;;;;31.38;26.10;;;2.30;99.90;;;;;;5055730;28;20368;-84
2021/12/04 02:57:08;;;;;;;29.48;26.13;;;2.30;99.90;;;;;;5038313;28;20818;-84
2021/12/04 02:59:37;;;;;;;28.38;25.27;;;2.40;99.90;;;;;;5039588;28;20431;-83
2021/12/04 03:02:15;;;;;;;31.33;25.00;;;2.30;99.90;;;;;;5041900;28;21019;-84
2021/12/04 03:04:40;;;;;;;28.55;24.27;;;2.40;99.90;;;;;;5037135;28;20391;-83
2021/12/04 03:07:06;;;;;;;27.48;23.73;;;2.50;99.90;;;;;;5055295;28;20376;-84
2021/12/04 03:09:32;;;;;;;30.23;23.90;;;2.50;99.90;;;;;;5056099;28;20405;-84
2021/12/04 03:12:01;;;;;;;28.10;23.60;;;2.50;99.90;;;;;;5054302;28;20441;-84
2021/12/04 03:14:27;;;;;;;26.35;22.88;;;2.60;99.90;;;;;;5053124;28;20378;-84
2021/12/04 03:16:52;;;;;;;26.90;24.05;;;2.60;99.90;;;;;;5073312;28;20367;-84
2021/12/04 03:19:18;;;;;;;26.23;23.37;;;2.60;99.90;;;;;;5055423;28;20496;-84
2021/12/04 03:21:44;;;;;;;25.47;22.70;;;2.60;99.90;;;;;;5046409;28;20391;-84
2021/12/04 03:24:13;;;;;;;26.23;23.38;;;2.60;99.90;;;;;;5035314;28;20742;-84
2021/12/04 03:26:39;;;;;;;25.15;22.48;;;2.60;99.90;;;;;;5035087;28;20500;-84
2021/12/04 03:29:09;;;;;;;25.63;22.88;;;2.70;99.90;;;;;;5052401;28;20423;-84
2021/12/04 03:31:51;;;;;;;25.67;22.95;;;2.60;99.90;;;;;;5035246;28;20477;-84
2021/12/04 03:42:28;;;;;;;28.33;23.67;;;2.70;99.90;;;;;;5075642;28;20875;-83
2021/12/04 03:44:54;;;;;;;25.03;21.97;;;2.70;99.90;;;;;;5057589;28;20392;-83
2021/12/04 03:47:21;;;;;;;23.27;20.88;;;2.70;99.90;;;;;;5056055;28;20435;-83
2021/12/04 03:49:47;;;;;;;25.42;21.88;;;2.80;99.90;;;;;;5068692;28;20437;-83
2021/12/04 03:52:13;;;;;;;25.20;22.13;;;2.80;99.90;;;;;;5056476;28;20414;-83
2021/12/04 03:54:39;;;;;;;25.27;22.60;;;2.80;99.90;;;;;;5035284;28;20391;-84
2021/12/04 03:57:06;;;;;;;24.38;21.77;;;2.70;99.90;;;;;;5053027;28;20427;-84
2021/12/04 03:59:37;;;;;;;26.15;22.65;;;2.80;99.90;;;;;;5052738;28;20404;-83
2021/12/04 04:02:05;;;;;;;26.10;23.00;;;2.70;99.90;;;;;;5052623;28;20381;-83
2021/12/04 04:04:30;;;;;;;24.63;21.93;;;2.80;99.90;;;;;;5056460;28;20949;-84
2021/12/04 04:06:59;;;;;;;23.97;21.50;;;2.80;99.90;;;;;;5054371;28;20461;-83
2021/12/04 04:09:24;;;;;;;23.93;21.37;;;2.80;99.90;;;;;;5072270;28;20424;-83
2021/12/04 04:11:50;;;;;;;23.63;21.13;;;2.90;99.90;;;;;;5071781;28;20895;-83
2021/12/04 04:14:16;;;;;;;23.90;20.80;;;2.90;99.90;;;;;;5071909;28;20362;-83
2021/12/04 04:16:41;;;;;;;23.88;20.25;;;2.90;99.90;;;;;;5071793;28;20370;-84
2021/12/04 04:19:08;;;;;;;23.08;20.67;;;2.90;99.90;;;;;;5060056;28;20415;-84
2021/12/04 04:21:39;;;;;;;23.23;20.75;;;2.90;99.90;;;;;;5033246;28;20400;-83
2021/12/04 04:24:06;;;;;;;22.45;20.25;;;2.90;99.90;;;;;;5033574;28;20388;-83
2021/12/04 04:26:32;;;;;;;22.60;20.20;;;2.90;99.90;;;;;;5051684;28;20422;-83
2021/12/04 04:28:58;;;;;;;23.20;20.70;;;3.00;99.90;;;;;;5051789;28;20462;-83
2021/12/04 04:31:23;;;;;;;22.03;19.77;;;3.00;99.90;;;;;;5041311;28;20472;-83
2021/12/04 04:33:49;;;;;;;22.88;20.38;;;3.00;99.90;;;;;;5070743;28;20374;-83
2021/12/04 05:11:12;;;;;;;22.33;19.92;;;3.10;99.90;;;;;;5070519;28;20393;-83
2021/12/04 05:13:39;;;;;;;22.70;20.08;;;3.10;99.90;;;;;;5037719;28;20411;-83
2021/12/04 05:19:00;;;;;;;24.63;21.52;;;3.00;99.90;;;;;;5055369;28;20481;-83
2021/12/04 05:21:26;;;;;;;22.83;20.27;;;3.00;99.90;;;;;;5070051;28;20878;-83
2021/12/04 05:23:55;;;;;;;27.17;22.13;;;3.00;99.90;;;;;;5070169;28;20374;-83
2021/12/04 05:26:29;;;;;;;24.70;22.17;;;3.00;99.90;;;;;;5070537;28;20432;-83
2021/12/04 05:28:58;;;;;;;25.95;22.52;;;2.90;99.90;;;;;;5070262;28;20451;-83
2021/12/04 05:31:24;;;;;;;27.15;22.73;;;2.90;99.90;;;;;;5051462;28;20409;-83
2021/12/04 05:33:50;;;;;;;27.70;23.58;;;2.90;99.90;;;;;;5070068;28;20378;-83
2021/12/04 05:36:16;;;;;;;29.48;23.83;;;2.80;99.90;;;;;;5070666;28;20427;-83
2021/12/04 05:38:42;;;;;;;26.73;23.65;;;2.90;99.90;;;;;;5052559;28;20406;-83
2021/12/04 05:41:07;;;;;;;27.75;24.85;;;2.90;99.90;;;;;;5070240;28;20377;-83
2021/12/04 05:43:34;;;;;;;31.60;25.67;;;2.80;99.90;;;;;;5070135;28;20984;-82
2021/12/04 05:46:10;;;;;;;31.23;25.23;;;2.90;99.90;;;;;;5041754;28;20391;-84
2021/12/04 05:48:44;;;;;;;29.90;26.55;;;2.90;99.90;;;;;;5032264;28;20422;-83
2021/12/04 05:53:54;;;;;;;29.85;26.75;;;2.70;99.90;;;;;;5050494;28;20403;-83
2021/12/04 05:56:20;;;;;;;31.25;27.40;;;2.70;99.90;;;;;;5032479;28;20549;-83
2021/12/04 05:58:47;;;;;;;28.75;25.70;;;2.70;99.90;;;;;;5051743;28;20406;-84
2021/12/04 06:01:15;;;;;;;30.08;26.83;;;2.80;99.90;;;;;;5057161;28;20427;-84
2021/12/04 06:03:41;;;;;;;33.72;28.35;;;2.70;99.90;;;;;;5051972;28;20378;-84
2021/12/04 06:06:07;;;;;;;30.10;26.90;;;2.70;99.90;;;;;;5051275;28;20476;-83
2021/12/04 06:08:32;;;;;;;30.90;27.55;;;2.60;99.90;;;;;;5050897;28;20521;-83
2021/12/04 06:10:58;;;;;;;30.70;27.33;;;2.60;99.90;;;;;;5049670;28;20394;-84
2021/12/04 06:13:25;;;;;;;30.50;27.17;;;2.60;99.90;;;;;;5049376;28;20388;-83
2021/12/04 06:15:52;;;;;;;31.48;28.05;;;2.60;99.90;;;;;;5039804;28;20398;-83
2021/12/04 06:18:17;;;;;;;30.27;27.03;;;2.60;99.90;;;;;;5070514;28;20401;-84
2021/12/04 06:23:28;;;;;;;30.00;26.87;;;2.70;99.90;;;;;;5070848;28;20377;-84
2021/12/04 06:25:54;;;;;;;30.95;27.58;;;2.70;99.90;;;;;;5069657;28;20366;-84
2021/12/04 06:28:20;;;;;;;30.45;27.25;;;2.60;99.90;;;;;;5070038;28;20863;-84
2021/12/04 06:30:46;;;;;;;33.60;28.73;;;2.50;99.90;;;;;;5052508;28;20380;-83
2021/12/04 06:33:16;;;;;;;31.27;27.75;;;2.50;99.90;;;;;;5032194;28;20451;-84
2021/12/04 06:35:42;;;;;;;31.35;27.60;;;2.50;99.90;;;;;;5032740;28;20391;-84
2021/12/04 06:38:10;;;;;;;32.00;28.45;;;2.40;99.90;;;;;;5050337;28;20418;-83
2021/12/04 06:40:36;;;;;;;30.00;26.88;;;2.50;99.90;;;;;;5031773;28;20484;-84
2021/12/04 06:43:03;;;;;;;31.13;27.25;;;2.60;99.90;;;;;;5049877;28;20918;-84
2021/12/04 06:45:32;;;;;;;31.13;27.35;;;2.50;99.90;;;;;;5032432;28;20754;-83
2021/12/04 06:48:01;;;;;;;31.27;27.38;;;2.50;99.90;;;;;;5050731;28;20479;-84
2021/12/04 06:55:41;;;;;;;31.73;26.50;;;2.50;99.90;;;;;;5069577;28;20452;-84
2021/12/04 06:58:06;;;;;;;28.48;25.38;;;2.50;99.90;;;;;;5050563;28;20409;-84
2021/12/04 07:00:33;;;;;;;29.17;26.07;;;2.60;99.90;;;;;;5068879;28;20393;-84
2021/12/04 07:02:58;;;;;;;31.55;26.10;;;2.60;99.90;;;;;;5070376;28;20393;-84
2021/12/04 07:05:24;;;;;;;28.33;25.33;;;2.60;99.90;;;;;;5069447;28;20366;-83
2021/12/04 07:07:49;;;;;;;27.47;24.57;;;2.70;99.90;;;;;;5069745;28;20396;-84
2021/12/04 07:10:15;;;;;;;28.27;24.57;;;2.70;99.90;;;;;;5051650;28;20397;-84
2021/12/04 07:12:40;;;;;;;29.85;25.92;;;2.70;99.90;;;;;;5051412;28;20390;-83
2021/12/04 07:15:08;;;;;;;30.13;26.40;;;2.70;99.90;;;;;;5053269;28;20855;-84
2021/12/04 07:17:35;;;;;;;28.90;24.63;;;2.70;99.90;;;;;;5055857;28;20390;-83
2021/12/04 07:20:05;;;;;;;28.17;23.88;;;2.80;99.90;;;;;;5073609;28;20410;-84
2021/12/04 07:22:33;;;;;;;27.13;24.10;;;2.80;99.90;;;;;;5074317;28;20445;-83
2021/12/04 07:24:58;;;;;;;28.77;24.33;;;2.90;99.90;;;;;;5055985;28;20785;-84
2021/12/04 07:27:24;;;;;;;27.93;25.00;;;3.00;99.90;;;;;;5073864;28;20473;-83
2021/12/04 07:29:50;;;;;;;27.30;24.37;;;2.90;99.90;;;;;;5072756;28;20558;-84
2021/12/04 07:32:16;;;;;;;27.87;24.53;;;2.90;99.90;;;;;;5057661;28;20457;-84
2021/12/04 07:34:42;;;;;;;27.57;24.30;;;2.90;99.90;;;;;;5036597;28;20897;-84
2021/12/04 07:37:07;;;;;;;28.67;25.67;;;3.00;99.90;;;;;;5053703;28;20482;-83
2021/12/04 07:39:33;;;;;;;26.77;24.05;;;3.00;99.90;;;;;;5036095;28;20411;-84
2021/12/04 07:41:58;;;;;;;27.85;24.65;;;2.90;99.90;;;;;;5052815;28;20387;-84
2021/12/04 07:44:24;;;;;;;26.23;22.60;;;2.90;99.90;;;;;;5035301;28;20407;-84
2021/12/04 07:46:50;;;;;;;28.13;23.57;;;3.00;99.90;;;;;;5037848;28;20914;-84
2021/12/04 07:49:16;;;;;;;25.48;22.77;;;3.10;99.90;;;;;;5071674;28;20382;-83
2021/12/04 07:51:43;;;;;;;26.73;23.40;;;3.10;99.90;;;;;;5053897;28;20427;-85
2021/12/04 07:54:09;;;;;;;27.33;24.43;;;3.20;99.90;;;;;;5054260;28;20743;-83
2021/12/04 07:56:35;;;;;;;25.42;22.77;;;3.10;99.90;;;;;;5041360;28;20418;-84
2021/12/04 07:59:01;;;;;;;26.45;23.65;;;3.10;99.90;;;;;;5053420;28;20833;-84
2021/12/04 08:01:27;;;;;;;26.65;23.75;;;3.10;99.90;;;;;;5043606;28;20392;-84
2021/12/04 08:03:52;;;;;;;24.35;21.77;;;3.20;99.90;;;;;;5033890;28;20733;-84
2021/12/04 08:06:18;;;;;;;26.10;23.40;;;3.20;99.90;;;;;;5033977;28;20411;-84
2021/12/04 08:08:44;;;;;;;25.80;23.20;;;3.20;99.90;;;;;;5034101;28;20467;-84
2021/12/04 08:11:09;;;;;;;26.43;22.40;;;3.20;99.90;;;;;;5056218;28;20385;-83
2021/12/04 08:13:35;;;;;;;24.90;22.33;;;3.30;99.90;;;;;;5071765;28;20502;-84
2021/12/04 08:16:01;;;;;;;24.17;21.70;;;3.30;99.90;;;;;;5034833;28;20516;-84
2021/12/04 08:18:26;;;;;;;25.25;22.60;;;3.40;99.90;;;;;;5066560;28;20405;-84
2021/12/04 08:20:52;;;;;;;24.87;21.83;;;3.50;99.90;;;;;;5071229;28;20410;-83
2021/12/04 08:23:18;;;;;;;24.67;21.42;;;3.50;99.90;;;;;;5071315;28;20848;-84
2021/12/04 08:25:45;;;;;;;25.20;22.52;;;3.50;99.90;;;;;;5070678;28;20370;-84
2021/12/04 08:28:11;;;;;;;24.58;22.02;;;3.60;99.90;;;;;;5067855;28;20438;-83
2021/12/04 08:30:40;;;;;;;24.55;21.95;;;3.60;99.90;;;;;;5034173;28;20411;-84
2021/12/04 08:33:06;;;;;;;23.17;20.88;;;3.60;99.90;;;;;;5033552;28;20399;-84
2021/12/04 08:35:35;;;;;;;24.33;21.70;;;3.60;99.90;;;;;;5051162;28;20431;-84
2021/12/04 08:38:02;;;;;;;23.98;21.48;;;3.60;99.90;;;;;;5051157;28;20510;-84
2021/12/04 08:40:29;;;;;;;24.08;21.50;;;3.60;99.90;;;;;;5033199;28;20411;-84
2021/12/04 08:42:55;;;;;;;24.17;21.67;;;3.60;99.90;;;;;;5042729;28;20397;-84
2021/12/04 08:45:21;;;;;;;24.27;21.67;;;3.60;99.90;;;;;;5050244;28;20411;-83
2021/12/04 08:47:47;;;;;;;24.83;21.85;;;3.60;99.90;;;;;;5070814;28;20987;-84
2021/12/04 08:50:17;;;;;;;26.45;23.65;;;3.60;99.90;;;;;;5070792;28;20432;-84
2021/12/04 08:52:43;;;;;;;25.90;22.80;;;3.50;99.90;;;;;;5070966;28;20374;-83
2021/12/04 08:55:11;;;;;;;26.02;23.23;;;3.50;99.90;;;;;;5069412;28;20780;-84
2021/12/04 08:57:37;;;;;;;27.27;24.37;;;3.50;99.90;;;;;;5070648;28;20382;-84
2021/12/04 09:00:09;;;;;;;27.07;24.27;;;3.50;99.90;;;;;;5066841;28;20417;-84
2021/12/04 09:02:35;;;;;;;27.65;24.58;;;3.50;99.90;;;;;;5070697;28;20465;-84
2021/12/04 09:05:03;;;;;;;28.02;25.13;;;3.50;99.90;;;;;;5070640;28;20767;-84
2021/12/04 09:07:29;;;;;;;30.73;26.85;;;3.50;99.90;;;;;;5069366;28;20779;-83
2021/12/04 09:09:56;;;;;;;27.88;24.90;;;3.40;99.90;;;;;;5070649;28;20427;-84
2021/12/04 09:12:27;;;;;;;28.25;25.27;;;3.40;99.90;;;;;;5067870;28;20397;-83
2021/12/04 09:14:55;;;;;;;27.40;24.50;;;3.50;99.90;;;;;;5067247;28;20412;-83
2021/12/04 09:17:21;;;;;;;28.70;24.73;;;3.50;99.90;;;;;;5069185;28;20385;-84
2021/12/04 09:19:47;;;;;;;27.92;24.85;;;3.60;99.90;;;;;;5069873;28;20440;-84
2021/12/04 09:22:24;;;;;;;27.60;24.67;;;3.70;99.90;;;;;;5055423;28;20800;-83
2021/12/04 09:24:53;;;;;;;26.75;23.92;;;3.70;99.90;;;;;;5067651;28;20409;-83
2021/12/04 10:02:41;;;;;;;22.30;20.00;;;4.50;99.90;;;;;;5049711;28;20403;-86
2021/12/04 10:18:52;;;;;;;20.98;18.92;;;4.70;99.90;;;;;;5056246;28;20459;-84
2021/12/04 10:21:31;;;;;;;21.35;19.23;;;4.70;99.90;;;;;;5062754;28;20394;-84
2021/12/04 10:32:39;;;;;;;21.83;19.63;;;4.80;99.90;;;;;;5054752;28;20434;-84
2021/12/04 10:35:07;;;;;;;21.65;19.35;;;4.80;99.90;;;;;;5057520;28;20425;-84
2021/12/04 10:37:34;;;;;;;22.27;20.02;;;4.80;99.90;;;;;;5049324;28;20372;-85
2021/12/04 10:40:06;;;;;;;21.53;19.33;;;4.80;99.90;;;;;;5047631;28;20433;-84
2021/12/04 10:42:49;;;;;;;21.80;19.60;;;4.90;99.90;;;;;;5047329;28;20395;-84
2021/12/04 10:45:15;;;;;;;22.33;20.00;;;4.90;99.90;;;;;;5056332;28;20390;-85
2021/12/04 10:47:52;;;;;;;22.05;19.83;;;5.00;99.90;;;;;;5055316;28;20486;-84
2021/12/04 10:53:03;;;;;;;22.58;20.42;;;4.90;99.90;;;;;;5061400;28;20393;-84
2021/12/04 10:55:44;;;;;;;22.05;19.83;;;4.80;99.90;;;;;;5068897;28;20386;-84
2021/12/04 11:00:54;;;;;;;23.58;21.02;;;4.70;99.90;;;;;;5056653;28;20831;-85
2021/12/04 11:03:40;;;;;;;24.60;21.30;;;4.70;99.90;;;;;;5057584;28;20477;-84
2021/12/04 11:26:02;;;;;;;33.63;27.98;;;4.60;99.90;;;;;;5052889;28;20467;-85
2021/12/04 11:37:00;;;;;;;32.05;28.55;;;4.70;99.90;;;;;;5055168;28;20397;-84
2021/12/04 11:39:43;;;;;;;31.30;27.88;;;4.70;99.90;;;;;;5051387;28;20403;-84
2021/12/04 11:45:08;;;;;;;34.55;29.55;;;4.80;99.90;;;;;;5055920;28;20390;-84
2021/12/04 11:47:45;;;;;;;35.65;30.27;;;4.70;99.90;;;;;;5055434;28;20464;-84
2021/12/04 11:50:33;;;;;;;35.08;29.83;;;4.70;99.90;;;;;;5038175;28;20400;-83
2021/12/04 11:53:02;;;;;;;35.53;30.08;;;4.70;99.90;;;;;;5055468;28;20384;-84
2021/12/04 11:55:31;;;;;;;36.22;30.92;;;4.60;99.90;;;;;;5056873;28;20374;-83
2021/12/04 11:57:57;;;;;;;35.35;30.50;;;4.60;99.90;;;;;;5054267;28;20391;-84
2021/12/04 12:00:28;;;;;;;35.55;30.63;;;4.70;99.90;;;;;;5055423;28;20386;-83
2021/12/04 12:03:14;;;;;;;38.58;32.97;;;4.70;99.90;;;;;;5060582;28;20908;-86
2021/12/04 12:06:03;;;;;;;33.00;27.58;;;4.70;99.90;;;;;;5060858;28;21165;-84
2021/12/04 12:08:37;;;;;;;32.65;27.83;;;4.60;99.90;;;;;;5058594;28;20411;-86
2021/12/04 12:11:27;;;;;;;32.40;27.27;;;4.60;99.90;;;;;;5062068;28;20455;-83
2021/12/04 12:14:22;;;;;;;34.53;28.77;;;4.60;99.90;;;;;;5057073;28;20384;-84
2021/12/04 12:16:52;;;;;;;29.95;25.52;;;4.60;99.90;;;;;;5035521;28;20467;-83
2021/12/04 12:19:39;;;;;;;28.52;25.38;;;4.60;99.90;;;;;;5057010;28;20798;-84
2021/12/04 12:22:10;;;;;;;29.40;25.50;;;4.50;99.90;;;;;;5059353;28;20446;-83
2021/12/04 12:38:36;;;;;;;25.95;23.15;;;4.60;99.90;;;;;;5067040;28;20505;-84
2021/12/04 12:41:08;;;;;;;25.85;23.05;;;4.50;99.90;;;;;;5069733;28;20894;-84
2021/12/04 12:43:40;;;;;;;26.15;23.33;;;4.60;99.90;;;;;;5069846;28;20458;-84
2021/12/04 12:46:07;;;;;;;25.77;22.42;;;4.50;99.90;;;;;;5070609;28;20430;-82
2021/12/04 12:48:49;;;;;;;24.02;21.52;;;4.60;99.90;;;;;;5069856;28;20401;-84
2021/12/04 12:51:22;;;;;;;23.30;20.90;;;4.60;99.90;;;;;;5070571;28;20377;-83
2021/12/04 12:53:48;;;;;;;24.50;21.90;;;4.60;99.90;;;;;;5068646;28;20944;-85
2021/12/04 12:56:15;;;;;;;22.42;20.13;;;4.40;99.90;;;;;;5056279;28;20487;-85
2021/12/04 12:58:54;;;;;;;22.95;20.55;;;4.30;99.90;;;;;;5058858;28;20730;-83
2021/12/04 13:12:50;;;;;;;21.42;19.42;;;3.90;99.90;;;;;;5059622;28;20402;-83
2021/12/04 13:15:34;;;;;;;22.13;20.00;;;3.80;99.90;;;;;;5049404;28;20452;-86
2021/12/04 13:18:17;;;;;;;22.70;20.50;;;3.60;99.90;;;;;;5063821;28;20390;-85
2021/12/04 13:20:44;;;;;;;23.40;21.15;;;3.50;99.90;;;;;;5046940;28;20398;-82
2021/12/04 13:23:13;;;;;;;24.55;22.15;;;3.30;99.90;;;;;;5066590;28;20385;-81
2021/12/04 13:26:02;;;;;;;23.73;21.35;;;3.30;99.90;;;;;;5064590;28;20579;-82
2021/12/04 13:28:31;;;;;;;25.25;22.63;;;3.30;99.90;;;;;;5060674;28;20397;-83
2021/12/04 13:31:00;;;;;;;24.90;22.50;;;3.30;99.90;;;;;;5063295;28;20434;-84
2021/12/04 13:33:30;;;;;;;25.45;22.95;;;3.40;99.90;;;;;;5063962;28;21259;-84
2021/12/04 13:35:56;;;;;;;26.38;23.67;;;3.40;99.90;;;;;;5063019;28;20747;-82
2021/12/04 13:38:24;;;;;;;25.50;22.90;;;3.40;99.90;;;;;;5062754;28;20997;-83
2021/12/04 13:40:52;;;;;;;26.00;23.38;;;3.40;99.90;;;;;;5064321;28;20427;-84
2021/12/04 13:43:19;;;;;;;26.77;24.13;;;3.50;99.90;;;;;;5063478;28;20390;-82
2021/12/04 13:45:54;;;;;;;27.30;24.50;;;3.60;99.90;;;;;;5060471;28;20485;-82
2021/12/04 13:48:19;;;;;;;26.08;23.50;;;3.60;99.90;;;;;;5058850;28;20429;-82
2021/12/04 13:50:46;;;;;;;26.80;24.10;;;3.60;99.90;;;;;;5061638;28;20485;-81
2021/12/04 13:53:19;;;;;;;26.67;23.88;;;3.60;99.90;;;;;;5062208;28;20475;-84
2021/12/04 13:55:50;;;;;;;27.90;25.15;;;3.60;99.90;;;;;;5062323;28;20402;-87
2021/12/04 13:58:16;;;;;;;24.13;21.70;;;3.50;99.90;;;;;;5060844;28;20624;-81
2021/12/04 14:00:44;;;;;;;25.35;22.85;;;3.60;99.90;;;;;;5062417;28;20961;-81
2021/12/04 14:03:10;;;;;;;25.75;23.15;;;3.50;99.90;;;;;;5061339;28;20906;-82
2021/12/04 14:05:35;;;;;;;26.42;23.75;;;3.50;99.90;;;;;;5062333;28;20553;-81
2021/12/04 14:08:05;;;;;;;26.17;23.60;;;3.40;99.90;;;;;;5061639;28;20916;-82
2021/12/04 14:10:34;;;;;;;27.88;25.17;;;3.50;99.90;;;;;;5061264;28;21066;-82
2021/12/04 14:13:03;;;;;;;28.40;25.60;;;3.50;99.90;;;;;;5059983;28;20386;-85
2021/12/04 14:15:29;;;;;;;27.02;24.40;;;3.50;99.90;;;;;;5057437;28;20503;-81
2021/12/04 14:18:07;;;;;;;28.87;26.07;;;3.50;99.90;;;;;;5058301;28;20388;-85
2021/12/04 14:20:35;;;;;;;29.17;26.30;;;3.60;99.90;;;;;;5058201;28;21077;-82
2021/12/04 14:23:01;;;;;;;28.35;25.70;;;3.60;99.90;;;;;;5060756;28;20405;-82
2021/12/04 14:25:28;;;;;;;27.58;24.83;;;3.60;99.90;;;;;;5058844;28;20387;-83
2021/12/04 14:27:54;;;;;;;28.35;25.65;;;3.60;99.90;;;;;;5062290;28;20381;-84
2021/12/04 14:30:36;;;;;;;27.75;25.02;;;3.60;99.90;;;;;;5064730;28;20779;-82
2021/12/04 14:33:04;;;;;;;29.98;27.05;;;3.50;99.90;;;;;;5056188;28;20414;-85
2021/12/04 14:35:33;;;;;;;29.33;26.42;;;3.50;99.90;;;;;;5064564;28;20382;-85
2021/12/04 14:38:02;;;;;;;29.30;26.40;;;3.50;99.90;;;;;;5064540;28;20413;-85
2021/12/04 14:40:36;;;;;;;30.50;27.50;;;3.50;99.90;;;;;;5060218;28;20382;-83
2021/12/04 14:43:11;;;;;;;29.03;26.37;;;3.50;99.90;;;;;;5060737;28;20857;-84
2021/12/04 14:45:38;;;;;;;25.73;23.23;;;3.60;99.90;;;;;;5034705;28;20468;-85
2021/12/04 14:48:16;;;;;;;26.08;23.48;;;3.50;99.90;;;;;;5064071;28;20378;-85
2021/12/04 14:50:46;;;;;;;29.05;26.08;;;3.40;99.90;;;;;;5058827;28;20861;-87
2021/12/04 14:53:14;;;;;;;30.27;27.17;;;3.30;99.90;;;;;;5044287;28;20391;-85
2021/12/04 14:55:43;;;;;;;31.80;28.63;;;3.20;99.90;;;;;;5061511;28;20382;-86
2021/12/04 14:58:14;;;;;;;30.15;27.25;;;3.30;99.90;;;;;;5061356;28;20386;-84
2021/12/04 15:00:44;;;;;;;28.05;25.35;;;3.30;99.90;;;;;;5061178;28;20925;-82
2021/12/04 15:03:29;;;;;;;30.67;27.67;;;3.30;99.90;;;;;;5060999;28;20868;-84
2021/12/04 15:05:59;;;;;;;27.20;24.60;;;3.40;99.90;;;;;;5063526;28;20370;-82
2021/12/04 15:08:28;;;;;;;27.73;25.13;;;3.40;99.90;;;;;;5061374;28;20783;-84
2021/12/04 15:11:16;;;;;;;26.33;23.75;;;3.40;99.90;;;;;;5061129;28;20666;-86
2021/12/04 15:13:52;;;;;;;27.45;24.70;;;3.40;99.90;;;;;;5060043;28;20469;-84
2021/12/04 15:16:38;;;;;;;32.45;29.17;;;3.40;99.90;;;;;;5058758;28;21279;-86
2021/12/04 15:19:38;;;;;;;29.73;26.80;;;3.50;99.90;;;;;;5059202;28;20464;-84
2021/12/04 15:22:04;;;;;;;32.07;28.87;;;3.50;99.90;;;;;;5059490;28;20437;-84
2021/12/04 15:24:34;;;;;;;30.40;27.45;;;3.60;99.90;;;;;;5059604;28;20391;-85
2021/12/04 15:27:07;;;;;;;27.92;25.27;;;3.60;99.90;;;;;;5051985;28;20417;-84
2021/12/04 15:29:35;;;;;;;28.17;25.40;;;3.60;99.90;;;;;;5060317;28;21307;-84
2021/12/04 15:32:14;;;;;;;29.67;26.85;;;3.70;99.90;;;;;;5061516;28;20416;-87
2021/12/04 15:34:53;;;;;;;31.38;28.02;;;3.60;99.90;;;;;;5060610;28;20399;-85
2021/12/04 15:37:35;;;;;;;29.60;26.58;;;3.60;99.90;;;;;;5061676;28;20398;-83
2021/12/04 15:40:02;;;;;;;29.80;26.90;;;3.60;99.90;;;;;;5055922;28;20403;-83
2021/12/04 15:42:41;;;;;;;31.20;28.20;;;3.70;99.90;;;;;;5050801;28;20379;-84
2021/12/04 15:48:09;;;;;;;37.92;34.33;;;3.70;99.90;;;;;;5072010;28;20751;-84
2021/12/04 15:50:55;;;;;;;29.92;26.95;;;3.60;99.90;;;;;;5069684;28;20958;-85
2021/12/04 15:53:22;;;;;;;29.37;26.43;;;3.70;99.90;;;;;;5063395;28;20442;-85
2021/12/04 15:55:54;;;;;;;30.33;27.25;;;3.60;99.90;;;;;;5060437;28;20390;-85
2021/12/04 15:58:22;;;;;;;32.15;28.95;;;3.60;99.90;;;;;;5069522;28;20428;-84